Aérodrome :
LOGIN :

S'inscrire | Disclaimer

   EN    FR    IT 

 










Légende :    VFR   VFR Marginal   IFR   IFR Intensif   IFR Très Intensif
Visi : 
Plafond : 
>= 8 km
>= 3000ft
5 à 8 km
1000 à 3000 ft
1500m à 5 km
500 à 1000 ft
800 à 1500m
200 à 500 ft
< 800m
< 200 ft
Symboles :   Orages  Brouillard  Fortes neiges  Fortes précipitations  Vent > 20 kt
SIGMETs :   Divers  Orages  Givrage  Turbulence  Onde Orograph.  Cendres Volcan.






- Altitude de l'aérodrome : 574 ft
- Code IATA : TEQ


LTBU - Corlu

DERNIER METAR :
  • 301620Z 10006KT 9999 FEW020 12/08 Q1011 RMK RWY22 14005KT

METARs EXPIRÉS :
  • 301550Z 13006KT 9999 FEW020TCU 13/09 Q1011 RMK RWY22 13005KT
  • 301420Z 19006KT 160V230 9999 FEW020 16/09 Q1011 RMK RWY22 18006KT 150V210
  • 301350Z 19007KT 160V220 9999 FEW020 16/09 Q1011 RMK RWY22 18007KT 150V220

TAF TAF LTBU
Valide du 30 à 12h jusqu'au 31 à 12h UTC


301040Z 3012/3112 VRB02KT CAVOK
PROB30
TEMPO 3101/3105 2500 BCFG SCT006
BECMG 3105/3108 02022KT SCT007 BKN025



MET'MAP, la Météo Aéronautique d'un coup d'oeil ! - Copyright ORBIFLY Décembre 2007 - Disclaimer

ORBIFLY MET'MAP TEAM :

Programmation & Développement : Alexandra Zaïnal
Sur une idée originale de : Baudouin d'Aumeries
Assistance à la programmation : Marc-Olivier Méhu
Soutien technique & logistique : Manuel Goepfert

Contact : metmap@orbifly.com




SOURCES & CREDITS :

   NOAA